Time;durP1;ratioP1;P1;durP2;ratioP2;P2;SDS_P1;SDS_P2;PMS_P1;PMS_P2;Temp;Humidity;BMP_temperature;BMP_pressure;BME280_temperature;BME280_humidity;BME280_pressure;Samples;Min_cycle;Max_cycle;Signal;HPM_P1;HPM_P2
2021/05/04 00:04:00;;;;;;;19.80;8.47;;;8.10;99.90;;;;;;10198829;28;20050;-64
2021/05/04 00:09:03;;;;;;;15.48;8.02;;;8.10;99.90;;;;;;10197011;28;20081;-64
2021/05/04 00:14:05;;;;;;;19.40;9.67;;;8.10;99.90;;;;;;10196258;28;20790;-64
2021/05/04 00:19:06;;;;;;;19.00;8.67;;;8.10;99.90;;;;;;10197419;28;21437;-63
2021/05/04 00:24:08;;;;;;;12.65;8.00;;;8.10;99.90;;;;;;10198026;28;20073;-63
2021/05/04 00:29:11;;;;;;;14.20;7.45;;;8.10;99.90;;;;;;10193628;28;20140;-64
2021/05/04 00:34:12;;;;;;;10.43;6.13;;;8.20;99.90;;;;;;10195091;28;20434;-64
2021/05/04 00:39:14;;;;;;;15.70;5.93;;;8.20;99.90;;;;;;10191913;28;21115;-63
2021/05/04 00:44:16;;;;;;;9.02;5.70;;;8.20;99.90;;;;;;10196902;28;20839;-63
2021/05/04 00:49:17;;;;;;;14.43;4.13;;;8.20;99.90;;;;;;10196343;28;20237;-63
2021/05/04 00:54:19;;;;;;;6.15;3.65;;;8.20;99.90;;;;;;10195781;28;20062;-63
2021/05/04 00:59:24;;;;;;;6.47;3.70;;;8.20;99.90;;;;;;10198081;28;20119;-63
2021/05/04 01:04:25;;;;;;;4.40;3.45;;;8.30;99.90;;;;;;10196719;28;20193;-62
2021/05/04 01:09:27;;;;;;;5.60;3.72;;;8.30;99.90;;;;;;10192377;28;20208;-63
2021/05/04 01:14:29;;;;;;;5.70;3.35;;;8.40;99.90;;;;;;10195353;28;20558;-62
2021/05/04 01:19:30;;;;;;;7.90;2.37;;;8.40;99.90;;;;;;10195701;28;20054;-62
2021/05/04 01:24:33;;;;;;;3.85;3.30;;;8.50;99.90;;;;;;10197236;28;20984;-63
2021/05/04 01:29:34;;;;;;;4.53;2.90;;;8.50;99.90;;;;;;10198421;28;20739;-62
2021/05/04 01:34:36;;;;;;;15.00;3.92;;;8.60;99.90;;;;;;10196602;28;20481;-63
2021/05/04 01:39:43;;;;;;;7.05;2.60;;;8.50;99.90;;;;;;10194227;28;21569;-63
2021/05/04 01:44:46;;;;;;;3.55;2.83;;;8.60;99.90;;;;;;10196893;28;20054;-63
2021/05/04 01:49:48;;;;;;;6.82;3.00;;;8.60;99.90;;;;;;10195709;28;20430;-62
2021/05/04 01:54:50;;;;;;;3.72;2.72;;;8.50;99.90;;;;;;10195041;28;20051;-62
2021/05/04 01:59:52;;;;;;;4.20;2.70;;;8.60;99.90;;;;;;10203688;28;20058;-62
2021/05/04 02:04:53;;;;;;;12.18;3.92;;;8.60;99.90;;;;;;10203697;28;20111;-62
2021/05/04 02:09:56;;;;;;;11.55;3.75;;;8.60;99.90;;;;;;10203025;28;21381;-63
2021/05/04 02:14:58;;;;;;;3.22;2.88;;;8.40;99.90;;;;;;10203237;28;20057;-63
2021/05/04 02:20:00;;;;;;;4.10;3.05;;;8.30;99.90;;;;;;10201461;28;20148;-63
2021/05/04 02:25:03;;;;;;;8.50;4.43;;;8.20;99.90;;;;;;10202949;28;20188;-63
2021/05/04 02:30:05;;;;;;;7.28;4.80;;;8.10;99.90;;;;;;10202598;28;20058;-63
2021/05/04 02:35:08;;;;;;;3.63;2.73;;;8.10;99.90;;;;;;10201680;28;20593;-62
2021/05/04 02:40:12;;;;;;;16.20;3.83;;;8.10;99.90;;;;;;10202294;28;20104;-62
2021/05/04 02:45:14;;;;;;;9.60;4.18;;;8.10;99.90;;;;;;10203122;28;20058;-63
2021/05/04 02:50:15;;;;;;;8.60;3.67;;;8.20;99.90;;;;;;10201419;28;20072;-63
2021/05/04 02:55:17;;;;;;;6.35;3.80;;;8.20;99.90;;;;;;10202620;28;20797;-62
2021/05/04 03:00:20;;;;;;;14.40;4.93;;;8.20;99.90;;;;;;10197834;28;20159;-62
2021/05/04 03:05:21;;;;;;;8.27;3.60;;;8.30;99.90;;;;;;10202601;28;20058;-62
2021/05/04 03:10:24;;;;;;;8.40;2.58;;;8.50;99.90;;;;;;10197739;28;20062;-63
2021/05/04 03:15:25;;;;;;;9.13;2.38;;;8.60;99.90;;;;;;10201594;28;20672;-62
2021/05/04 03:20:27;;;;;;;12.50;2.40;;;8.70;99.90;;;;;;10201096;28;22694;-62
2021/05/04 03:25:29;;;;;;;12.23;3.22;;;8.70;99.90;;;;;;10199484;28;20139;-62
2021/05/04 03:30:31;;;;;;;5.37;1.97;;;8.80;99.90;;;;;;10197054;28;20156;-63
2021/05/04 03:35:32;;;;;;;6.15;2.25;;;8.80;99.90;;;;;;10198401;28;20054;-62
2021/05/04 03:40:35;;;;;;;13.13;2.55;;;8.80;99.90;;;;;;10199348;28;20815;-62
2021/05/04 03:45:36;;;;;;;5.13;1.63;;;8.90;99.90;;;;;;10198913;28;20486;-62
2021/05/04 03:50:37;;;;;;;9.60;2.72;;;8.90;99.90;;;;;;10195918;28;20057;-62
2021/05/04 03:55:40;;;;;;;15.15;4.03;;;8.90;99.90;;;;;;10200830;28;20783;-62
2021/05/04 04:00:41;;;;;;;13.00;2.70;;;9.10;99.90;;;;;;10197997;28;20053;-62
2021/05/04 04:05:42;;;;;;;21.73;3.65;;;9.20;99.90;;;;;;10198166;28;20425;-62
2021/05/04 04:10:45;;;;;;;32.63;4.60;;;9.20;99.90;;;;;;10197592;28;20193;-62
2021/05/04 04:15:46;;;;;;;48.78;6.15;;;9.30;99.90;;;;;;10196836;28;21085;-63
2021/05/04 04:20:48;;;;;;;41.13;4.85;;;9.40;99.90;;;;;;10196718;28;20050;-63
2021/05/04 04:25:51;;;;;;;43.20;5.75;;;9.50;99.90;;;;;;10197917;28;20054;-63
2021/05/04 04:30:52;;;;;;;38.05;5.60;;;9.50;99.90;;;;;;10196328;28;20061;-63
2021/05/04 04:35:54;;;;;;;46.40;6.85;;;9.50;99.90;;;;;;10196422;28;20081;-63
2021/05/04 04:40:56;;;;;;;29.60;5.57;;;9.60;99.90;;;;;;10196878;28;21613;-63
2021/05/04 04:45:58;;;;;;;51.27;6.10;;;9.60;99.90;;;;;;10195929;28;20093;-62
2021/05/04 04:50:59;;;;;;;28.75;4.20;;;9.60;99.90;;;;;;10191043;28;21292;-62
2021/05/04 04:56:01;;;;;;;31.48;4.47;;;9.70;99.90;;;;;;10193870;28;20144;-63
2021/05/04 05:01:03;;;;;;;20.17;4.93;;;9.80;99.90;;;;;;10195867;28;20223;-63
2021/05/04 05:06:04;;;;;;;16.58;2.60;;;10.10;99.90;;;;;;10195321;28;20050;-62
2021/05/04 05:11:07;;;;;;;31.35;5.13;;;10.60;99.90;;;;;;10192812;28;21678;-63
2021/05/04 05:16:08;;;;;;;39.07;3.90;;;12.30;97.00;;;;;;10193139;28;20099;-63
2021/05/04 05:21:11;;;;;;;23.48;3.42;;;12.40;95.60;;;;;;10191252;28;20777;-63
2021/05/04 05:26:15;;;;;;;25.55;4.85;;;12.20;95.20;;;;;;10191854;28;20251;-62
2021/05/04 05:31:16;;;;;;;43.20;6.45;;;11.40;97.50;;;;;;10194924;28;20062;-62
2021/05/04 05:36:18;;;;;;;37.65;5.18;;;11.00;99.00;;;;;;10203239;28;20176;-63
2021/05/04 05:41:20;;;;;;;28.90;4.05;;;10.60;99.90;;;;;;10201740;28;20506;-62
2021/05/04 05:46:22;;;;;;;34.88;5.22;;;10.40;99.90;;;;;;10200980;28;20168;-62
2021/05/04 05:51:24;;;;;;;36.08;5.47;;;10.30;99.90;;;;;;10202417;28;20058;-63
2021/05/04 05:56:26;;;;;;;30.70;5.03;;;10.20;99.90;;;;;;10203927;28;20054;-62
2021/05/04 06:01:28;;;;;;;32.67;5.87;;;10.20;99.90;;;;;;10201727;28;20184;-62
2021/05/04 06:06:29;;;;;;;40.10;6.57;;;10.20;99.90;;;;;;10202233;28;20762;-63
2021/05/04 06:11:31;;;;;;;42.42;5.28;;;10.30;99.90;;;;;;10200589;28;20150;-62
2021/05/04 06:16:33;;;;;;;35.53;5.63;;;10.40;99.90;;;;;;10201335;28;20078;-63
2021/05/04 06:21:34;;;;;;;21.67;3.72;;;10.40;99.90;;;;;;10198287;28;20061;-63
2021/05/04 06:26:37;;;;;;;31.20;4.70;;;10.50;99.90;;;;;;10199125;28;20058;-63
2021/05/04 06:31:38;;;;;;;24.80;4.97;;;10.60;99.40;;;;;;10200547;28;20066;-63
2021/05/04 06:36:39;;;;;;;26.23;3.63;;;11.20;97.30;;;;;;10201285;28;20880;-64
2021/05/04 06:41:42;;;;;;;27.30;4.68;;;11.30;96.50;;;;;;10200797;28;20180;-62
2021/05/04 06:46:43;;;;;;;14.37;3.03;;;11.40;96.10;;;;;;10197875;28;20050;-63
2021/05/04 06:51:44;;;;;;;30.08;5.05;;;11.70;95.80;;;;;;10199609;28;20133;-63
2021/05/04 06:56:47;;;;;;;30.58;4.07;;;11.70;94.80;;;;;;10196939;28;21773;-64
2021/05/04 07:01:48;;;;;;;32.43;3.63;;;11.30;95.70;;;;;;10199891;28;21341;-63
2021/05/04 07:06:49;;;;;;;33.22;4.63;;;11.40;96.70;;;;;;10200232;28;20823;-63
2021/05/04 07:11:52;;;;;;;30.55;5.03;;;12.50;95.20;;;;;;10197594;28;20050;-63
2021/05/04 07:16:54;;;;;;;44.28;5.82;;;15.40;84.60;;;;;;10198254;28;20058;-64
2021/05/04 07:21:56;;;;;;;38.28;5.00;;;14.30;87.20;;;;;;10200421;28;20183;-63
2021/05/04 07:26:58;;;;;;;44.50;5.93;;;13.20;91.10;;;;;;10200859;28;20204;-64
2021/05/04 07:31:59;;;;;;;19.98;3.45;;;12.80;92.00;;;;;;10198265;28;20073;-62
2021/05/04 07:37:01;;;;;;;27.33;3.58;;;12.30;92.40;;;;;;10198164;28;20058;-62
2021/05/04 07:42:04;;;;;;;30.65;4.00;;;12.00;93.10;;;;;;10197316;28;20888;-62
2021/05/04 07:47:05;;;;;;;30.05;3.80;;;12.00;92.90;;;;;;10196940;28;20623;-62
2021/05/04 07:52:07;;;;;;;24.63;4.50;;;12.00;92.90;;;;;;10198316;28;20565;-62
2021/05/04 07:57:10;;;;;;;29.63;4.07;;;12.00;92.60;;;;;;10198371;28;20054;-62
2021/05/04 08:02:12;;;;;;;27.45;3.28;;;12.00;92.70;;;;;;10196656;28;20057;-62
2021/05/04 08:07:14;;;;;;;19.10;2.77;;;11.70;94.00;;;;;;10197384;28;20050;-62
2021/05/04 08:12:16;;;;;;;25.75;3.63;;;11.20;95.40;;;;;;10198673;28;20054;-62
2021/05/04 08:17:19;;;;;;;23.83;3.90;;;10.70;97.10;;;;;;10199504;28;21500;-62
2021/05/04 08:22:20;;;;;;;;;;;10.80;97.90;;;;;;10197992;28;20061;-62
2021/05/04 08:27:22;;;;;;;37.63;5.07;;;11.00;98.90;;;;;;10197573;28;20117;-63
2021/05/04 08:32:24;;;;;;;36.60;5.17;;;11.10;99.60;;;;;;10195661;28;20100;-62
2021/05/04 08:37:25;;;;;;;31.45;5.50;;;11.40;99.20;;;;;;10196054;28;20053;-62
2021/05/04 08:42:28;;;;;;;26.27;3.57;;;11.90;97.10;;;;;;10199311;28;21403;-61
2021/05/04 08:47:30;;;;;;;21.88;4.28;;;12.30;95.70;;;;;;10197436;28;21777;-63
2021/05/04 08:52:31;;;;;;;24.23;3.30;;;12.20;95.00;;;;;;10195886;28;20064;-62
2021/05/04 08:57:36;;;;;;;25.48;3.28;;;11.70;96.30;;;;;;10192328;28;20053;-63
2021/05/04 09:02:54;;;;;;;21.40;2.47;;;11.70;95.00;;;;;;10195711;28;21383;-61
2021/05/04 09:07:56;;;;;;;14.05;1.70;;;11.50;93.50;;;;;;10192615;28;20077;-62
2021/05/04 09:13:01;;;;;;;10.98;1.20;;;12.10;91.10;;;;;;10195715;28;20063;-63
2021/05/04 09:18:35;;;;;;;12.73;2.22;;;16.00;73.90;;;;;;10194140;28;20053;-62
2021/05/04 09:23:37;;;;;;;9.40;1.80;;;18.40;60.40;;;;;;10195446;28;20057;-62
2021/05/04 09:28:48;;;;;;;14.13;1.85;;;17.90;55.30;;;;;;10195692;28;20054;-61
2021/05/04 09:33:50;;;;;;;10.98;1.67;;;15.60;59.70;;;;;;10195609;28;21109;-62
2021/05/04 09:38:51;;;;;;;6.10;1.40;;;14.80;64.70;;;;;;10194085;28;20062;-62
2021/05/04 09:43:54;;;;;;;16.65;2.13;;;14.90;62.40;;;;;;10196302;28;21179;-62
2021/05/04 09:48:55;;;;;;;12.35;1.92;;;14.40;63.50;;;;;;10193457;28;21077;-63
2021/05/04 09:53:59;;;;;;;10.07;1.83;;;13.70;69.20;;;;;;10196570;28;20050;-62
2021/05/04 09:59:03;;;;;;;17.17;1.95;;;13.40;70.90;;;;;;10194156;28;20116;-62
2021/05/04 10:04:05;;;;;;;7.13;1.83;;;13.10;72.40;;;;;;10192431;28;20054;-63
2021/05/04 10:09:08;;;;;;;8.57;2.00;;;13.10;72.80;;;;;;10191538;28;20766;-63
2021/05/04 10:14:12;;;;;;;13.15;1.73;;;13.20;73.00;;;;;;10192414;28;20495;-63
2021/05/04 10:19:16;;;;;;;14.68;2.28;;;13.70;69.20;;;;;;10197540;28;20050;-63
2021/05/04 10:24:19;;;;;;;11.40;1.75;;;14.10;67.00;;;;;;10195597;28;20051;-64
2021/05/04 10:29:24;;;;;;;15.60;1.67;;;14.40;63.90;;;;;;10195316;28;20058;-64
2021/05/04 10:34:34;;;;;;;24.10;2.17;;;14.30;65.40;;;;;;10198539;28;21541;-63
2021/05/04 10:39:38;;;;;;;13.35;2.50;;;14.30;66.50;;;;;;10199323;28;20168;-63
2021/05/04 10:45:10;;;;;;;17.50;2.08;;;15.00;63.30;;;;;;10201963;28;20180;-62
2021/05/04 10:50:13;;;;;;;11.40;1.48;;;15.00;62.70;;;;;;10200241;28;21027;-63
2021/05/04 10:55:15;;;;;;;23.40;2.05;;;14.80;63.70;;;;;;10199029;28;20132;-63
2021/05/04 11:00:52;;;;;;;12.65;1.27;;;14.50;63.90;;;;;;10199537;28;20061;-63
2021/05/04 11:05:54;;;;;;;21.70;1.65;;;14.20;64.70;;;;;;10197805;28;20099;-63
2021/05/04 11:11:19;;;;;;;7.85;1.60;;;14.80;63.30;;;;;;10198058;28;20050;-63
2021/05/04 11:16:31;;;;;;;15.60;1.75;;;15.50;60.20;;;;;;10199231;28;20054;-62
2021/05/04 11:21:40;;;;;;;16.92;1.67;;;15.40;59.50;;;;;;10199882;28;21067;-64
2021/05/04 11:26:46;;;;;;;13.93;2.30;;;16.10;57.50;;;;;;10198917;28;20085;-62
2021/05/04 11:31:50;;;;;;;18.30;2.92;;;16.40;55.50;;;;;;10195214;28;20053;-63
2021/05/04 11:36:51;;;;;;;11.02;1.80;;;17.10;54.40;;;;;;10196065;28;20071;-64
2021/05/04 11:41:56;;;;;;;18.90;2.05;;;17.00;53.10;;;;;;10193634;28;20097;-64
2021/05/04 11:47:18;;;;;;;11.00;1.75;;;16.50;54.50;;;;;;10196209;28;20050;-63
2021/05/04 11:52:23;;;;;;;22.67;2.70;;;15.00;58.00;;;;;;10195720;28;21718;-63
2021/05/04 11:57:29;;;;;;;13.98;1.67;;;14.20;62.60;;;;;;10196467;28;20077;-63
2021/05/04 12:02:32;;;;;;;9.05;2.45;;;13.10;76.80;;;;;;10195827;28;20645;-63
2021/05/04 12:07:36;;;;;;;10.82;2.08;;;12.30;84.80;;;;;;10196285;28;20061;-63
2021/05/04 12:12:41;;;;;;;20.65;2.03;;;13.10;82.30;;;;;;10196117;28;20115;-64
2021/05/04 12:17:44;;;;;;;16.20;2.33;;;14.40;76.10;;;;;;10198121;28;20762;-63
2021/05/04 12:22:46;;;;;;;;;;;15.40;66.10;;;;;;10198728;28;20058;-63
2021/05/04 12:27:47;;;;;;;15.55;1.73;;;15.70;61.20;;;;;;10199572;28;19984;-64
2021/05/04 12:32:51;;;;;;;13.80;1.50;;;15.30;61.30;;;;;;10196469;28;20538;-63
2021/05/04 12:38:09;;;;;;;15.60;2.50;;;15.10;63.10;;;;;;10192545;28;21276;-63
2021/05/04 12:43:16;;;;;;;9.65;1.60;;;14.70;65.90;;;;;;10198307;28;20061;-63
2021/05/04 12:48:24;;;;;;;7.22;1.50;;;15.70;62.30;;;;;;10195103;28;20868;-63
2021/05/04 12:53:27;;;;;;;5.05;0.98;;;16.00;58.50;;;;;;10196947;28;20062;-62
2021/05/04 12:58:28;;;;;;;12.18;1.95;;;15.10;62.50;;;;;;10195504;28;20054;-64
2021/05/04 13:03:44;;;;;;;16.45;2.67;;;14.30;68.60;;;;;;10192132;28;21745;-63
2021/05/04 13:08:55;;;;;;;9.23;2.00;;;14.50;68.50;;;;;;10197311;28;20692;-63
2021/05/04 13:14:04;;;;;;;9.57;1.25;;;14.70;65.50;;;;;;10192157;28;20076;-60
2021/05/04 13:30:03;;;;;;;16.60;2.45;;;13.70;70.60;;;;;;10193361;28;20786;-62
2021/05/04 13:35:09;;;;;;;23.48;2.80;;;13.00;73.50;;;;;;10196566;28;21092;-64
2021/05/04 13:40:27;;;;;;;16.75;2.40;;;11.90;88.30;;;;;;10193509;28;20069;-63
2021/05/04 13:50:45;;;;;;;10.13;1.85;;;9.70;97.80;;;;;;10192989;28;20109;-63
2021/05/04 13:55:47;;;;;;;12.55;1.90;;;10.10;99.40;;;;;;10200148;28;20061;-61
2021/05/04 14:00:54;;;;;;;14.10;2.33;;;10.70;99.90;;;;;;10202023;28;21137;-62
2021/05/04 14:27:21;;;;;;;19.15;2.70;;;10.40;96.10;;;;;;10200705;28;20058;-61
2021/05/04 14:32:22;;;;;;;11.48;2.55;;;10.50;96.70;;;;;;10201878;28;20195;-63
2021/05/04 14:37:28;;;;;;;9.68;2.25;;;11.10;94.90;;;;;;10200975;28;20475;-63
2021/05/04 14:43:08;;;;;;;20.98;2.13;;;11.40;93.40;;;;;;10199497;28;21335;-61
2021/05/04 14:53:52;;;;;;;10.77;1.98;;;12.50;90.40;;;;;;10195896;28;20050;-63
2021/05/04 14:58:58;;;;;;;16.60;1.98;;;12.70;87.30;;;;;;10199695;28;20061;-63
2021/05/04 15:03:59;;;;;;;6.95;1.50;;;12.80;86.30;;;;;;10200616;28;20084;-63
2021/05/04 15:09:05;;;;;;;10.45;2.05;;;12.90;85.50;;;;;;10199247;28;21367;-63
2021/05/04 15:14:10;;;;;;;9.73;2.40;;;13.00;85.20;;;;;;10199470;28;20706;-62
2021/05/04 15:24:33;;;;;;;10.93;2.60;;;12.90;85.50;;;;;;10200317;28;20049;-63
2021/05/04 15:29:35;;;;;;;13.82;3.17;;;12.80;84.60;;;;;;10197627;28;20796;-63
2021/05/04 15:34:36;;;;;;;12.40;2.38;;;12.00;89.30;;;;;;10196979;28;20756;-62
2021/05/04 15:39:39;;;;;;;8.05;1.45;;;11.60;91.80;;;;;;10199403;28;20046;-61
2021/05/04 15:44:40;;;;;;;9.03;1.20;;;12.10;90.70;;;;;;10195535;28;20311;-62
2021/05/04 15:49:44;;;;;;;6.10;1.52;;;12.00;88.50;;;;;;10196783;28;20073;-63
2021/05/04 15:55:18;;;;;;;13.32;1.52;;;11.70;88.30;;;;;;10199408;28;21522;-63
2021/05/04 16:00:42;;;;;;;12.73;1.40;;;11.70;88.80;;;;;;10199594;28;20489;-62
2021/05/04 16:11:04;;;;;;;18.45;2.15;;;11.90;91.20;;;;;;10196735;28;21123;-63
2021/05/04 16:16:06;;;;;;;2.80;1.05;;;12.20;88.60;;;;;;10197009;28;20133;-62
2021/05/04 16:21:24;;;;;;;14.63;1.35;;;12.00;87.30;;;;;;10197330;28;20070;-64
2021/05/04 16:26:36;;;;;;;5.78;1.10;;;11.60;86.40;;;;;;10195739;28;20451;-64
2021/05/04 16:31:37;;;;;;;10.48;1.33;;;11.30;87.00;;;;;;10196528;28;20654;-64
2021/05/04 16:36:38;;;;;;;5.30;1.10;;;11.20;88.00;;;;;;10195320;28;20092;-64
2021/05/04 16:41:41;;;;;;;4.40;0.80;;;11.50;87.80;;;;;;10194631;28;20045;-64
2021/05/04 16:46:57;;;;;;;9.37;1.33;;;11.80;87.00;;;;;;10192402;28;21972;-64
2021/05/04 16:52:00;;;;;;;8.65;1.30;;;11.60;86.40;;;;;;10194214;28;21682;-64
2021/05/04 16:57:04;;;;;;;6.72;1.40;;;11.30;87.40;;;;;;10191131;28;20837;-64
2021/05/04 17:02:07;;;;;;;11.35;2.05;;;11.30;87.90;;;;;;10196012;28;22065;-64
2021/05/04 17:07:12;;;;;;;8.18;1.15;;;10.90;91.50;;;;;;10196259;28;20054;-63
2021/05/04 17:12:16;;;;;;;14.77;1.90;;;9.90;94.80;;;;;;10194254;28;20053;-65
2021/05/04 17:17:17;;;;;;;11.65;1.08;;;9.00;97.40;;;;;;10192969;28;20054;-64
2021/05/04 17:22:19;;;;;;;5.20;1.00;;;9.10;99.60;;;;;;10205205;28;20084;-62
2021/05/04 17:27:22;;;;;;;4.55;1.30;;;9.20;99.30;;;;;;10218440;28;20054;-62
2021/05/04 17:32:23;;;;;;;4.15;1.58;;;8.90;99.40;;;;;;10198422;28;20050;-63
2021/05/04 17:37:25;;;;;;;3.42;0.95;;;8.90;99.40;;;;;;10201130;28;20046;-62
2021/05/04 17:42:27;;;;;;;3.95;0.98;;;8.70;99.30;;;;;;10200235;28;20902;-63
2021/05/04 17:47:29;;;;;;;8.03;1.10;;;8.30;99.40;;;;;;10201734;28;20058;-64
2021/05/04 17:52:31;;;;;;;15.80;2.05;;;7.50;99.90;;;;;;10196550;28;20793;-64
2021/05/04 17:57:33;;;;;;;16.60;1.70;;;7.50;99.90;;;;;;10198560;28;20065;-64
2021/05/04 18:02:34;;;;;;;21.42;2.47;;;7.70;99.90;;;;;;10201415;28;20054;-64
2021/05/04 18:07:38;;;;;;;16.80;2.13;;;8.00;99.90;;;;;;10199727;28;20829;-63
2021/05/04 18:12:53;;;;;;;18.98;2.40;;;8.20;99.90;;;;;;10199599;28;20054;-64
2021/05/04 18:23:14;;;;;;;10.88;1.55;;;7.90;99.90;;;;;;10199916;28;21293;-63
2021/05/04 18:28:16;;;;;;;6.43;2.13;;;7.70;99.90;;;;;;10199501;28;20465;-63
2021/05/04 18:33:20;;;;;;;7.03;1.20;;;7.60;99.90;;;;;;10200062;28;20066;-62
2021/05/04 18:38:27;;;;;;;11.02;1.77;;;7.50;99.90;;;;;;10198228;28;21332;-63
2021/05/04 18:44:56;;;;;;;9.32;2.17;;;7.40;99.90;;;;;;10195887;28;20055;-61
2021/05/04 19:05:34;;;;;;;7.45;1.58;;;7.50;99.90;;;;;;10193902;28;20101;-61
2021/05/04 19:43:14;;;;;;;14.00;2.53;;;7.10;99.90;;;;;;10198986;28;20391;-64
2021/05/04 20:09:44;;;;;;;13.98;1.77;;;7.10;99.90;;;;;;10195656;28;20066;-63
2021/05/04 20:14:46;;;;;;;7.55;2.17;;;7.10;99.90;;;;;;10195457;28;20050;-63
2021/05/04 20:19:48;;;;;;;3.30;1.30;;;7.30;99.90;;;;;;10194498;28;20105;-63
2021/05/04 20:24:51;;;;;;;18.30;2.53;;;7.20;99.90;;;;;;10190577;28;20097;-63
2021/05/04 20:29:52;;;;;;;26.90;2.25;;;7.10;99.90;;;;;;10196995;28;20058;-63
2021/05/04 20:34:54;;;;;;;8.43;3.45;;;6.90;99.90;;;;;;10195602;28;20050;-63
2021/05/04 20:39:55;;;;;;;8.90;2.50;;;6.90;99.90;;;;;;10200533;28;20563;-62
2021/05/04 20:44:57;;;;;;;13.20;1.95;;;7.00;99.90;;;;;;10197518;28;20058;-64
2021/05/04 20:49:59;;;;;;;10.20;1.85;;;7.00;99.90;;;;;;10200428;28;20065;-63
2021/05/04 20:55:01;;;;;;;8.38;3.63;;;7.00;99.90;;;;;;10232322;28;20129;-63
2021/05/04 21:00:04;;;;;;;11.20;1.50;;;7.00;99.90;;;;;;10236489;28;20058;-63
2021/05/04 21:05:07;;;;;;;;;;;7.00;99.90;;;;;;10236525;28;20751;-63
2021/05/04 21:10:18;;;;;;;6.95;1.20;;;7.00;99.90;;;;;;10235722;28;19937;-63
2021/05/04 21:15:22;;;;;;;20.38;1.65;;;6.90;99.90;;;;;;10237969;28;20056;-63
2021/05/04 21:20:27;;;;;;;14.27;1.88;;;6.80;99.90;;;;;;10236260;28;22033;-61
2021/05/04 21:26:03;;;;;;;10.07;1.88;;;6.80;99.90;;;;;;10238743;28;20172;-62
2021/05/04 21:31:04;;;;;;;11.63;1.50;;;6.80;99.90;;;;;;10237399;28;20076;-61
2021/05/04 21:36:08;;;;;;;8.50;2.25;;;6.70;99.90;;;;;;10234187;28;21728;-63
2021/05/04 21:41:10;;;;;;;4.22;1.25;;;6.70;99.90;;;;;;10234205;28;21198;-62
2021/05/04 21:46:11;;;;;;;11.10;1.50;;;6.70;99.90;;;;;;10224127;28;20057;-63
2021/05/04 21:51:14;;;;;;;8.13;1.20;;;6.70;99.90;;;;;;10235756;28;20052;-62
2021/05/04 21:56:15;;;;;;;16.10;2.58;;;6.70;99.90;;;;;;10235720;28;20046;-62
2021/05/04 22:01:17;;;;;;;20.50;1.58;;;6.70;99.90;;;;;;10235175;28;20054;-61
2021/05/04 22:06:20;;;;;;;14.23;1.97;;;6.70;99.90;;;;;;10236352;28;20188;-63
2021/05/04 22:11:23;;;;;;;10.93;1.50;;;6.80;99.90;;;;;;10232537;28;21672;-62
2021/05/04 22:17:02;;;;;;;11.75;2.72;;;6.80;99.90;;;;;;10241180;28;21921;-61
2021/05/04 22:38:03;;;;;;;9.82;1.48;;;6.70;99.90;;;;;;10236576;28;20062;-63
2021/05/04 22:43:10;;;;;;;11.38;2.20;;;6.80;99.90;;;;;;10239659;28;20769;-62
2021/05/04 23:20:34;;;;;;;10.23;1.73;;;6.50;99.90;;;;;;10238590;28;20058;-64
2021/05/04 23:25:36;;;;;;;10.15;2.10;;;6.30;99.90;;;;;;10239835;28;20521;-65
2021/05/04 23:30:37;;;;;;;11.48;1.92;;;6.30;99.90;;;;;;10240247;28;20086;-64
2021/05/04 23:35:39;;;;;;;17.38;2.38;;;6.30;99.90;;;;;;10238605;28;21316;-65
2021/05/04 23:40:41;;;;;;;12.15;1.77;;;6.30;99.90;;;;;;10238396;28;20058;-64
2021/05/04 23:45:42;;;;;;;6.73;1.77;;;6.50;99.90;;;;;;10237261;28;20058;-65
2021/05/04 23:50:44;;;;;;;9.88;1.80;;;6.50;99.90;;;;;;10236101;28;20088;-65
2021/05/04 23:55:46;;;;;;;24.45;3.05;;;6.60;99.90;;;;;;10236388;28;20082;-64
